Time;durP1;ratioP1;P1;durP2;ratioP2;P2;SDS_P1;SDS_P2;PMS_P1;PMS_P2;Temp;Humidity;BMP_temperature;BMP_pressure;BME280_temperature;BME280_humidity;BME280_pressure;Samples;Min_cycle;Max_cycle;Signal;HPM_P1;HPM_P2
2022/05/29 00:02:09;;;;;;;0.43;0.43;;;10.10;99.90;;;;;;5095611;28;20101;-72
2022/05/29 00:04:36;;;;;;;0.40;0.40;;;10.00;99.90;;;;;;5096256;28;20044;-74
2022/05/29 00:07:03;;;;;;;0.60;0.60;;;10.00;99.90;;;;;;5095178;28;20491;-74
2022/05/29 00:09:36;;;;;;;0.82;0.70;;;10.00;99.90;;;;;;5095569;28;20085;-75
2022/05/29 00:12:04;;;;;;;0.73;0.73;;;10.00;99.90;;;;;;5095300;28;20047;-71
2022/05/29 00:14:31;;;;;;;0.40;0.40;;;10.00;99.90;;;;;;5095433;28;20044;-74
2022/05/29 00:16:57;;;;;;;0.40;0.40;;;10.00;99.90;;;;;;5095087;28;20483;-73
2022/05/29 00:19:23;;;;;;;0.40;0.40;;;10.10;99.90;;;;;;5095286;28;20062;-76
2022/05/29 00:21:49;;;;;;;0.40;0.40;;;10.00;99.90;;;;;;5095348;28;20503;-74
2022/05/29 00:24:15;;;;;;;0.40;0.40;;;10.00;99.90;;;;;;5095268;28;20105;-73
2022/05/29 00:26:41;;;;;;;0.40;0.40;;;10.00;99.90;;;;;;5095199;28;20181;-73
2022/05/29 00:29:07;;;;;;;0.40;0.40;;;10.00;99.90;;;;;;5095025;28;20040;-73
2022/05/29 00:31:33;;;;;;;0.50;0.50;;;10.10;99.90;;;;;;5095629;28;20044;-70
2022/05/29 00:33:59;;;;;;;0.40;0.40;;;10.00;99.90;;;;;;5095075;28;20044;-72
2022/05/29 00:36:25;;;;;;;0.50;0.50;;;10.00;99.90;;;;;;5094965;28;20073;-73
2022/05/29 00:38:51;;;;;;;0.40;0.40;;;10.00;99.90;;;;;;5094972;28;20058;-74
2022/05/29 00:41:32;;;;;;;0.40;0.40;;;10.00;99.90;;;;;;5094922;28;20044;-74
2022/05/29 00:44:25;;;;;;;0.40;0.40;;;10.00;99.90;;;;;;5094875;28;20090;-73
2022/05/29 00:46:51;;;;;;;0.40;0.40;;;10.00;99.90;;;;;;5094793;28;20047;-74
2022/05/29 00:49:18;;;;;;;0.45;0.45;;;10.00;99.90;;;;;;5095007;28;20040;-72
2022/05/29 00:51:49;;;;;;;0.40;0.40;;;10.00;99.90;;;;;;5094667;28;20079;-72
2022/05/29 00:54:16;;;;;;;0.40;0.40;;;10.00;99.90;;;;;;5094105;28;20048;-74
2022/05/29 00:56:42;;;;;;;0.50;0.50;;;10.00;99.90;;;;;;5094693;28;20048;-74
2022/05/29 00:59:15;;;;;;;0.50;0.50;;;10.00;99.90;;;;;;5094604;28;20075;-72
2022/05/29 01:01:41;;;;;;;0.50;0.50;;;10.00;99.90;;;;;;5094834;28;20054;-74
2022/05/29 01:04:07;;;;;;;0.40;0.40;;;10.00;99.90;;;;;;5094424;28;20466;-74
2022/05/29 01:06:33;;;;;;;0.40;0.40;;;10.00;99.90;;;;;;5094544;28;20050;-74
2022/05/29 01:09:00;;;;;;;0.40;0.40;;;9.90;99.90;;;;;;5094269;28;20040;-75
2022/05/29 01:11:55;;;;;;;0.40;0.40;;;10.00;99.90;;;;;;5094673;28;20066;-73
2022/05/29 01:15:07;;;;;;;0.40;0.40;;;9.90;99.90;;;;;;5039379;28;20053;-75
2022/05/29 01:17:56;;;;;;;0.40;0.40;;;9.90;99.90;;;;;;5094671;28;20119;-76
2022/05/29 01:20:34;;;;;;;0.50;0.50;;;9.90;99.90;;;;;;5094701;28;20043;-72
2022/05/29 01:23:17;;;;;;;;;;;9.80;99.90;;;;;;5094759;28;20047;-73
2022/05/29 01:26:12;;;;;;;0.40;0.40;;;9.70;99.90;;;;;;5094143;28;19927;-73
2022/05/29 01:28:59;;;;;;;0.40;0.40;;;9.70;99.90;;;;;;5094020;28;20051;-73
2022/05/29 01:32:01;;;;;;;0.50;0.50;;;9.60;99.90;;;;;;5094220;28;20052;-75
2022/05/29 01:34:48;;;;;;;1.35;1.25;;;9.60;99.90;;;;;;5061865;28;20060;-74
2022/05/29 01:37:48;;;;;;;0.40;0.40;;;9.60;99.90;;;;;;5094273;28;20044;-73
2022/05/29 01:40:25;;;;;;;0.40;0.40;;;9.50;99.90;;;;;;5093962;28;20067;-71
2022/05/29 01:43:10;;;;;;;0.50;0.50;;;9.60;99.90;;;;;;5093887;28;20091;-75
2022/05/29 01:46:01;;;;;;;0.40;0.40;;;9.60;99.90;;;;;;5093935;28;20048;-72
2022/05/29 01:48:35;;;;;;;0.50;0.50;;;9.60;99.90;;;;;;5093728;28;20089;-73
2022/05/29 01:51:16;;;;;;;0.40;0.40;;;9.60;99.90;;;;;;5094249;28;20051;-72
2022/05/29 01:53:48;;;;;;;0.40;0.40;;;9.60;99.90;;;;;;5093460;28;20492;-75
2022/05/29 01:56:35;;;;;;;0.45;0.45;;;9.60;99.90;;;;;;5093228;28;20127;-70
2022/05/29 01:59:10;;;;;;;0.40;0.40;;;9.60;99.90;;;;;;5092821;28;20044;-75
2022/05/29 02:01:41;;;;;;;0.50;0.50;;;9.60;99.90;;;;;;5094230;28;20044;-71
2022/05/29 02:04:10;;;;;;;0.40;0.40;;;9.60;99.90;;;;;;5093766;28;20047;-74
2022/05/29 02:09:26;;;;;;;0.43;0.43;;;9.50;99.90;;;;;;5097951;28;20102;-74
2022/05/29 02:11:56;;;;;;;0.40;0.40;;;9.40;99.90;;;;;;5098138;28;20095;-76
2022/05/29 02:14:29;;;;;;;0.40;0.40;;;9.40;99.90;;;;;;5097730;28;20074;-75
2022/05/29 02:17:21;;;;;;;0.40;0.40;;;9.40;99.90;;;;;;5097745;28;20177;-73
2022/05/29 02:19:55;;;;;;;0.40;0.40;;;9.30;99.90;;;;;;5091102;28;20060;-72
2022/05/29 02:22:28;;;;;;;0.50;0.50;;;9.30;99.90;;;;;;5097606;28;20048;-73
2022/05/29 02:25:10;;;;;;;0.40;0.40;;;9.20;99.90;;;;;;5097672;28;20083;-74
2022/05/29 02:27:51;;;;;;;0.40;0.40;;;9.20;99.90;;;;;;5097722;28;20105;-73
2022/05/29 02:30:18;;;;;;;0.40;0.40;;;9.20;99.90;;;;;;5097919;28;20048;-74
2022/05/29 02:32:47;;;;;;;0.43;0.43;;;9.20;99.90;;;;;;5097048;28;20547;-73
2022/05/29 02:35:32;;;;;;;0.40;0.40;;;9.20;99.90;;;;;;5097293;28;20059;-72
2022/05/29 02:38:12;;;;;;;0.40;0.40;;;9.20;99.90;;;;;;5097304;28;20472;-73
2022/05/29 02:41:24;;;;;;;0.40;0.40;;;9.20;99.90;;;;;;5097330;28;20460;-71
2022/05/29 02:44:23;;;;;;;0.50;0.50;;;9.20;99.90;;;;;;5034758;28;20084;-73
2022/05/29 02:46:59;;;;;;;0.40;0.40;;;9.30;99.90;;;;;;5097338;28;20044;-70
2022/05/29 02:49:34;;;;;;;0.50;0.50;;;9.30;99.90;;;;;;5096978;28;20131;-75
2022/05/29 02:52:15;;;;;;;0.40;0.40;;;9.30;99.90;;;;;;5097093;28;20407;-74
2022/05/29 02:54:41;;;;;;;0.40;0.40;;;9.30;99.90;;;;;;5097050;28;20403;-74
2022/05/29 02:57:08;;;;;;;0.40;0.40;;;9.30;99.90;;;;;;5096904;28;20047;-74
2022/05/29 02:59:42;;;;;;;0.40;0.40;;;9.30;99.90;;;;;;5096854;28;20047;-75
2022/05/29 03:02:30;;;;;;;0.40;0.40;;;9.30;99.90;;;;;;5097411;28;20392;-74
2022/05/29 03:05:15;;;;;;;0.40;0.40;;;9.20;99.90;;;;;;5096760;28;20139;-71
2022/05/29 03:08:09;;;;;;;0.40;0.40;;;9.30;99.90;;;;;;5096849;28;20058;-71
2022/05/29 03:10:39;;;;;;;0.40;0.40;;;9.30;99.90;;;;;;5096040;28;20070;-74
2022/05/29 03:13:34;;;;;;;0.40;0.40;;;9.30;99.90;;;;;;5096663;28;20142;-73
2022/05/29 03:16:07;;;;;;;0.40;0.40;;;9.30;99.90;;;;;;5096545;28;20052;-74
2022/05/29 03:18:50;;;;;;;0.40;0.40;;;9.30;99.90;;;;;;5096230;28;20128;-70
2022/05/29 03:21:24;;;;;;;0.40;0.40;;;9.40;99.90;;;;;;5096593;28;20400;-75
2022/05/29 03:24:25;;;;;;;0.60;0.60;;;9.30;99.90;;;;;;5096602;28;20040;-71
2022/05/29 03:27:12;;;;;;;0.40;0.40;;;9.30;99.90;;;;;;5096542;28;20036;-70
2022/05/29 03:30:19;;;;;;;0.50;0.50;;;9.30;99.90;;;;;;5096510;28;20044;-73
2022/05/29 03:32:46;;;;;;;0.40;0.40;;;9.30;99.90;;;;;;5096155;28;20063;-73
2022/05/29 03:35:17;;;;;;;0.40;0.40;;;9.30;99.90;;;;;;5096282;28;20089;-74
2022/05/29 03:37:43;;;;;;;0.50;0.50;;;9.30;99.90;;;;;;5096725;28;20058;-70
2022/05/29 03:40:10;;;;;;;0.40;0.40;;;9.20;99.90;;;;;;5096203;28;20040;-72
2022/05/29 03:42:36;;;;;;;;;;;9.30;99.90;;;;;;5096414;28;20052;-71
2022/05/29 03:45:01;;;;;;;0.40;0.40;;;9.30;99.90;;;;;;5095977;28;20440;-73
2022/05/29 03:47:27;;;;;;;0.50;0.50;;;9.30;99.90;;;;;;5095875;28;20047;-74
2022/05/29 03:49:52;;;;;;;0.47;0.47;;;9.30;99.90;;;;;;5095858;28;20055;-74
2022/05/29 03:52:18;;;;;;;0.50;0.50;;;9.30;99.90;;;;;;5095945;28;20044;-71
2022/05/29 03:54:43;;;;;;;0.50;0.50;;;9.30;99.90;;;;;;5095803;28;20130;-70
2022/05/29 03:57:09;;;;;;;0.50;0.50;;;9.30;99.90;;;;;;5096063;28;20055;-73
2022/05/29 03:59:35;;;;;;;0.40;0.40;;;9.30;99.90;;;;;;5095968;28;20036;-73
2022/05/29 04:02:00;;;;;;;0.50;0.50;;;9.30;99.90;;;;;;5094725;28;20127;-72
2022/05/29 04:04:26;;;;;;;0.40;0.40;;;9.30;99.90;;;;;;5095397;28;20040;-73
2022/05/29 04:06:51;;;;;;;0.82;0.82;;;9.30;99.90;;;;;;5095455;28;20412;-73
2022/05/29 04:12:04;;;;;;;0.50;0.50;;;9.30;99.90;;;;;;5097245;28;20052;-71
2022/05/29 04:14:32;;;;;;;0.50;0.50;;;9.30;99.90;;;;;;5096685;28;20043;-70
2022/05/29 04:17:02;;;;;;;0.50;0.50;;;9.40;99.90;;;;;;5096598;28;20048;-72
2022/05/29 04:19:28;;;;;;;0.40;0.40;;;9.30;99.90;;;;;;5096983;28;20101;-75
2022/05/29 04:21:53;;;;;;;0.50;0.50;;;9.30;99.90;;;;;;5095837;28;20035;-75
2022/05/29 04:24:20;;;;;;;0.40;0.40;;;9.40;99.90;;;;;;5096422;28;20434;-72
2022/05/29 04:26:50;;;;;;;0.50;0.50;;;9.40;99.90;;;;;;5095902;28;20055;-71
2022/05/29 04:29:17;;;;;;;0.50;0.50;;;9.50;99.90;;;;;;5095273;28;20098;-72
2022/05/29 04:32:59;;;;;;;0.40;0.40;;;9.50;99.90;;;;;;5095739;28;20048;-74
2022/05/29 04:34:29;;;;;;;0.50;0.50;;;9.50;99.90;;;;;;5095605;28;20492;-71
2022/05/29 04:36:54;;;;;;;0.50;0.50;;;9.60;99.90;;;;;;5094998;28;20084;-72
2022/05/29 04:39:20;;;;;;;0.40;0.40;;;9.60;99.90;;;;;;5095024;28;20040;-73
2022/05/29 04:41:45;;;;;;;0.50;0.50;;;9.60;99.90;;;;;;5094928;28;20170;-75
2022/05/29 04:44:11;;;;;;;0.50;0.50;;;9.60;99.90;;;;;;5094792;28;20055;-73
2022/05/29 04:46:36;;;;;;;0.50;0.50;;;9.60;99.90;;;;;;5094685;28;20046;-74
2022/05/29 04:49:02;;;;;;;0.40;0.40;;;9.60;99.90;;;;;;5094675;28;20434;-74
2022/05/29 04:51:28;;;;;;;0.50;0.50;;;9.60;99.90;;;;;;5095023;28;20388;-76
2022/05/29 04:53:53;;;;;;;0.40;0.40;;;9.70;99.90;;;;;;5094693;28;20130;-73
2022/05/29 04:56:19;;;;;;;0.52;0.52;;;9.70;99.90;;;;;;5094535;28;20127;-72
2022/05/29 04:58:44;;;;;;;2.35;2.15;;;9.70;99.90;;;;;;5094512;28;20401;-73
2022/05/29 05:01:10;;;;;;;0.40;0.40;;;9.70;99.90;;;;;;5094448;28;20047;-71
2022/05/29 05:03:36;;;;;;;0.40;0.40;;;9.80;99.90;;;;;;5094502;28;20044;-72
2022/05/29 05:06:02;;;;;;;0.40;0.40;;;9.80;99.90;;;;;;5094612;28;20051;-75
2022/05/29 05:08:28;;;;;;;0.50;0.50;;;9.80;99.90;;;;;;5094345;28;20460;-71
2022/05/29 05:10:54;;;;;;;0.60;0.60;;;9.90;99.90;;;;;;5094030;28;20059;-73
2022/05/29 05:13:20;;;;;;;0.50;0.50;;;9.90;99.90;;;;;;5094312;28;20101;-72
2022/05/29 05:15:46;;;;;;;0.40;0.40;;;9.90;99.90;;;;;;5094156;28;20376;-76
2022/05/29 05:18:11;;;;;;;0.50;0.50;;;9.90;99.90;;;;;;5094257;28;20051;-76
2022/05/29 05:20:38;;;;;;;0.50;0.50;;;10.00;99.90;;;;;;5094153;28;20403;-75
2022/05/29 05:23:04;;;;;;;0.40;0.40;;;10.00;99.90;;;;;;5094206;28;20048;-74
2022/05/29 05:25:30;;;;;;;2.28;1.95;;;10.10;99.90;;;;;;5094122;28;20126;-70
2022/05/29 05:27:55;;;;;;;0.45;0.45;;;10.10;99.90;;;;;;5094010;28;20131;-74
2022/05/29 05:30:21;;;;;;;0.40;0.40;;;10.20;99.90;;;;;;5094007;28;20089;-73
2022/05/29 05:32:47;;;;;;;0.40;0.40;;;10.20;99.90;;;;;;5094083;28;20078;-72
2022/05/29 05:35:12;;;;;;;0.40;0.40;;;10.30;99.90;;;;;;5094043;28;20484;-73
2022/05/29 05:37:39;;;;;;;0.40;0.40;;;10.30;99.90;;;;;;5094043;28;20040;-73
2022/05/29 05:40:10;;;;;;;0.50;0.50;;;10.40;99.90;;;;;;5093953;28;20040;-71
2022/05/29 05:42:36;;;;;;;0.40;0.40;;;10.40;99.90;;;;;;5093996;28;20040;-72
2022/05/29 05:45:02;;;;;;;0.40;0.40;;;10.40;99.90;;;;;;5093894;28;20048;-72
2022/05/29 05:47:28;;;;;;;0.90;0.90;;;10.40;99.90;;;;;;5093861;28;20032;-73
2022/05/29 05:49:54;;;;;;;0.40;0.40;;;10.40;99.90;;;;;;5093612;28;20051;-73
2022/05/29 05:52:19;;;;;;;0.40;0.40;;;10.40;99.90;;;;;;5094054;28;20143;-74
2022/05/29 05:54:45;;;;;;;0.40;0.40;;;10.30;99.90;;;;;;5093764;28;20063;-73
2022/05/29 05:57:11;;;;;;;0.50;0.50;;;10.30;99.90;;;;;;5093833;28;20066;-73
2022/05/29 05:59:39;;;;;;;0.50;0.50;;;10.30;99.90;;;;;;5093754;28;20044;-73
2022/05/29 06:02:09;;;;;;;0.40;0.40;;;10.30;99.90;;;;;;5093724;28;20458;-71
2022/05/29 06:04:37;;;;;;;0.40;0.40;;;10.40;99.90;;;;;;5093723;28;20123;-75
2022/05/29 06:07:03;;;;;;;0.40;0.40;;;10.40;99.90;;;;;;5093929;28;20091;-72
2022/05/29 06:09:29;;;;;;;0.40;0.40;;;10.50;99.90;;;;;;5093610;28;20483;-73
2022/05/29 06:11:55;;;;;;;0.40;0.40;;;10.60;99.90;;;;;;5093756;28;20411;-72
2022/05/29 06:14:21;;;;;;;0.40;0.40;;;10.60;99.90;;;;;;5093519;28;20044;-74
2022/05/29 06:16:47;;;;;;;0.40;0.40;;;10.70;99.90;;;;;;5094351;28;20500;-75
2022/05/29 06:19:12;;;;;;;0.40;0.40;;;10.80;99.90;;;;;;5093592;28;20036;-72
2022/05/29 06:21:38;;;;;;;0.47;0.47;;;10.80;99.90;;;;;;5093525;28;20044;-73
2022/05/29 06:24:04;;;;;;;0.40;0.40;;;10.90;99.90;;;;;;5093522;28;20044;-73
2022/05/29 06:26:30;;;;;;;0.40;0.40;;;11.00;99.90;;;;;;5093473;28;20044;-72
2022/05/29 06:28:56;;;;;;;0.40;0.40;;;11.10;99.90;;;;;;5093385;28;20036;-71
2022/05/29 06:31:22;;;;;;;0.40;0.40;;;11.10;99.90;;;;;;5093342;28;20052;-73
2022/05/29 06:33:47;;;;;;;0.40;0.40;;;11.10;99.90;;;;;;5093466;28;20044;-71
2022/05/29 06:36:24;;;;;;;0.40;0.40;;;11.00;99.90;;;;;;5093766;28;20284;-71
2022/05/29 06:38:52;;;;;;;0.40;0.40;;;11.00;99.90;;;;;;5093555;28;20040;-73
2022/05/29 06:41:20;;;;;;;0.40;0.40;;;11.00;99.90;;;;;;5093372;28;20093;-74
2022/05/29 06:43:46;;;;;;;0.40;0.40;;;11.00;99.90;;;;;;5093327;28;20094;-71
2022/05/29 06:46:12;;;;;;;0.40;0.40;;;10.90;99.90;;;;;;5093678;28;20043;-71
2022/05/29 06:48:40;;;;;;;0.40;0.40;;;10.80;99.90;;;;;;5093582;28;20046;-74
2022/05/29 06:51:21;;;;;;;0.40;0.40;;;10.80;99.90;;;;;;5093219;28;20055;-70
2022/05/29 06:53:49;;;;;;;0.40;0.40;;;10.80;99.90;;;;;;5097060;28;20475;-71
2022/05/29 06:56:16;;;;;;;0.47;0.47;;;10.70;99.90;;;;;;5096908;28;20048;-71
2022/05/29 06:58:42;;;;;;;0.60;0.60;;;10.60;99.90;;;;;;5097121;28;20040;-71
2022/05/29 07:07:01;;;;;;;0.40;0.40;;;10.50;99.90;;;;;;5096659;28;20055;-73
2022/05/29 07:09:36;;;;;;;0.50;0.50;;;10.50;99.90;;;;;;5096636;28;20484;-72
2022/05/29 07:12:11;;;;;;;0.40;0.40;;;10.60;99.90;;;;;;5096359;28;20056;-76
2022/05/29 07:14:40;;;;;;;0.40;0.40;;;10.60;99.90;;;;;;5096656;28;20404;-70
2022/05/29 07:17:06;;;;;;;0.40;0.40;;;10.60;99.90;;;;;;5096459;28;20040;-76
2022/05/29 07:19:32;;;;;;;0.40;0.40;;;10.70;99.90;;;;;;5096578;28;20036;-72
2022/05/29 07:21:58;;;;;;;0.40;0.40;;;10.80;99.90;;;;;;5096442;28;20083;-73
2022/05/29 07:24:26;;;;;;;0.60;0.60;;;10.90;99.90;;;;;;5096483;28;20073;-71
2022/05/29 07:26:53;;;;;;;0.40;0.40;;;11.00;99.90;;;;;;5096311;28;20036;-72
2022/05/29 07:29:23;;;;;;;0.40;0.40;;;11.20;99.90;;;;;;5096230;28;20052;-73
2022/05/29 07:31:51;;;;;;;0.40;0.40;;;11.30;99.90;;;;;;5096792;28;20062;-72
2022/05/29 07:34:16;;;;;;;0.40;0.40;;;11.50;99.90;;;;;;5096174;28;20419;-74
2022/05/29 07:36:42;;;;;;;0.40;0.40;;;11.60;99.90;;;;;;5095863;28;20047;-73
2022/05/29 07:39:09;;;;;;;0.40;0.40;;;11.70;99.90;;;;;;5096369;28;20039;-72
2022/05/29 07:44:18;;;;;;;0.43;0.43;;;11.90;99.90;;;;;;5096518;28;20130;-75
2022/05/29 07:46:44;;;;;;;0.40;0.40;;;12.00;99.90;;;;;;5096200;28;20126;-73
2022/05/29 07:49:09;;;;;;;0.40;0.40;;;11.90;99.90;;;;;;5095878;28;20101;-73
2022/05/29 07:51:35;;;;;;;0.40;0.40;;;11.90;99.90;;;;;;5096253;28;20447;-71
2022/05/29 07:54:00;;;;;;;0.40;0.40;;;11.90;99.90;;;;;;5096373;28;20043;-75
2022/05/29 07:56:27;;;;;;;0.95;0.95;;;11.90;99.90;;;;;;5096070;28;20052;-72
2022/05/29 07:58:52;;;;;;;0.40;0.40;;;12.00;99.90;;;;;;5095977;28;20044;-75
2022/05/29 08:01:19;;;;;;;0.40;0.40;;;12.00;99.90;;;;;;5095968;28;20118;-71
2022/05/29 08:03:45;;;;;;;0.40;0.40;;;12.10;99.90;;;;;;5095115;28;20414;-76
2022/05/29 08:06:11;;;;;;;0.40;0.40;;;12.10;99.90;;;;;;5095970;28;20044;-71
2022/05/29 08:08:37;;;;;;;0.40;0.40;;;12.10;99.90;;;;;;5096029;28;20036;-75
2022/05/29 08:11:03;;;;;;;0.40;0.40;;;12.10;99.90;;;;;;5095916;28;20078;-75
2022/05/29 08:13:31;;;;;;;3.20;1.30;;;12.10;99.90;;;;;;5095680;28;20044;-72
2022/05/29 08:15:56;;;;;;;0.40;0.40;;;12.10;99.90;;;;;;5097191;28;20074;-71
2022/05/29 08:18:23;;;;;;;0.40;0.40;;;12.10;99.90;;;;;;5099080;28;20047;-70
2022/05/29 08:20:50;;;;;;;0.40;0.40;;;12.20;99.90;;;;;;5099405;28;20412;-72
2022/05/29 08:23:16;;;;;;;0.40;0.40;;;12.30;99.90;;;;;;5098768;28;20424;-72
2022/05/29 08:30:37;;;;;;;0.40;0.40;;;12.20;99.90;;;;;;5096148;28;20400;-72
2022/05/29 08:31:27;;;;;;;0.40;0.40;;;12.20;99.90;;;;;;5095590;28;20044;-75
2022/05/29 08:33:52;;;;;;;0.40;0.40;;;12.20;99.90;;;;;;5095318;28;20468;-74
2022/05/29 08:36:24;;;;;;;0.40;0.40;;;12.00;99.90;;;;;;5095397;28;20096;-71
2022/05/29 08:38:53;;;;;;;0.40;0.40;;;12.00;99.90;;;;;;5095302;28;20043;-71
2022/05/29 08:41:27;;;;;;;0.40;0.40;;;11.80;99.90;;;;;;5096428;28;20200;-73
2022/05/29 08:44:02;;;;;;;3.30;1.75;;;11.60;99.90;;;;;;5095603;28;20392;-72
2022/05/29 08:46:36;;;;;;;0.50;0.50;;;11.40;99.90;;;;;;5095003;28;20492;-72
2022/05/29 08:49:02;;;;;;;0.40;0.40;;;11.30;99.90;;;;;;5094930;28;20076;-73
2022/05/29 08:51:57;;;;;;;0.50;0.50;;;11.20;99.90;;;;;;5094754;28;20043;-72
2022/05/29 08:54:50;;;;;;;0.40;0.40;;;11.20;99.90;;;;;;5095057;28;20377;-71
2022/05/29 08:57:37;;;;;;;0.40;0.40;;;11.20;99.90;;;;;;5094595;28;20048;-71
2022/05/29 09:00:20;;;;;;;0.40;0.40;;;11.40;99.90;;;;;;5094573;28;20453;-73
2022/05/29 09:03:07;;;;;;;0.60;0.60;;;11.50;99.90;;;;;;5093702;28;20093;-69
2022/05/29 09:05:44;;;;;;;0.40;0.40;;;11.60;99.90;;;;;;5094367;28;20047;-71
2022/05/29 09:08:33;;;;;;;0.40;0.40;;;11.70;99.90;;;;;;5094546;28;20086;-71
2022/05/29 09:11:06;;;;;;;1.00;0.85;;;12.00;99.90;;;;;;5094257;28;20071;-72
2022/05/29 09:13:40;;;;;;;0.50;0.50;;;12.10;99.90;;;;;;5094579;28;20039;-73
2022/05/29 09:16:27;;;;;;;0.55;0.55;;;12.20;99.90;;;;;;5094088;28;20078;-71
2022/05/29 09:19:13;;;;;;;0.40;0.40;;;12.30;99.90;;;;;;5094574;28;20040;-73
2022/05/29 09:21:56;;;;;;;0.40;0.40;;;12.40;99.90;;;;;;5094807;28;20058;-73
2022/05/29 09:24:38;;;;;;;0.40;0.40;;;12.40;99.90;;;;;;5094327;28;20044;-73
2022/05/29 09:27:04;;;;;;;0.50;0.50;;;12.40;99.90;;;;;;5094682;28;20040;-72
2022/05/29 09:29:30;;;;;;;0.40;0.40;;;12.30;99.90;;;;;;5093008;28;20101;-74
2022/05/29 09:31:56;;;;;;;0.40;0.40;;;12.40;99.90;;;;;;5093259;28;20126;-75
2022/05/29 09:34:22;;;;;;;0.40;0.40;;;12.50;99.90;;;;;;5094144;28;20127;-74
2022/05/29 09:37:16;;;;;;;0.40;0.40;;;12.60;99.90;;;;;;5094131;28;20040;-73
2022/05/29 09:39:46;;;;;;;0.40;0.40;;;12.70;99.90;;;;;;5093818;28;20511;-72
2022/05/29 09:42:28;;;;;;;0.40;0.40;;;12.70;99.90;;;;;;5094089;28;20055;-71
2022/05/29 09:45:11;;;;;;;0.32;0.32;;;12.70;99.90;;;;;;5093939;28;20048;-72
2022/05/29 09:50:25;;;;;;;1.17;1.10;;;12.50;99.90;;;;;;5093868;28;20051;-73
2022/05/29 09:52:51;;;;;;;0.45;0.45;;;12.30;99.90;;;;;;5094073;28;20040;-73
2022/05/29 09:55:30;;;;;;;0.32;0.32;;;12.10;99.90;;;;;;5093825;28;20495;-73
2022/05/29 09:58:01;;;;;;;0.30;0.30;;;12.00;99.90;;;;;;5093767;28;20047;-75
2022/05/29 10:00:31;;;;;;;0.55;0.55;;;12.00;99.90;;;;;;5093790;28;20052;-71
2022/05/29 10:02:57;;;;;;;0.43;0.43;;;11.90;99.90;;;;;;5094052;28;20157;-72
2022/05/29 10:05:35;;;;;;;0.40;0.40;;;11.90;99.90;;;;;;5093762;28;20130;-74
2022/05/29 10:08:31;;;;;;;0.40;0.40;;;12.10;99.90;;;;;;5093810;28;20165;-71
2022/05/29 10:11:12;;;;;;;0.40;0.40;;;12.30;99.90;;;;;;5093246;28;20066;-75
2022/05/29 10:13:40;;;;;;;0.40;0.40;;;12.60;99.90;;;;;;5093662;28;20044;-74
2022/05/29 10:16:07;;;;;;;0.38;0.38;;;12.90;99.90;;;;;;5093578;28;20080;-72
2022/05/29 10:18:38;;;;;;;0.40;0.40;;;12.90;99.90;;;;;;5093632;28;20076;-70
2022/05/29 10:21:15;;;;;;;0.40;0.40;;;13.00;99.90;;;;;;5093483;28;20372;-72
2022/05/29 10:23:48;;;;;;;0.40;0.40;;;12.90;99.90;;;;;;5093689;28;20132;-74
2022/05/29 10:26:30;;;;;;;0.40;0.40;;;12.90;99.90;;;;;;5093765;28;20499;-72
2022/05/29 10:28:56;;;;;;;0.40;0.40;;;12.70;99.90;;;;;;5097594;28;20044;-72
2022/05/29 10:31:25;;;;;;;0.40;0.40;;;12.30;99.90;;;;;;5097504;28;20040;-70
2022/05/29 10:34:07;;;;;;;0.40;0.40;;;12.20;99.90;;;;;;5097396;28;20586;-72
2022/05/29 10:36:34;;;;;;;0.50;0.50;;;12.10;99.90;;;;;;5097716;28;20395;-73
2022/05/29 10:39:17;;;;;;;0.40;0.40;;;12.00;99.90;;;;;;5097308;28;20113;-74
2022/05/29 10:41:44;;;;;;;0.40;0.40;;;12.00;99.90;;;;;;5097000;28;20051;-72
2022/05/29 10:44:12;;;;;;;0.40;0.40;;;12.10;99.90;;;;;;5097606;28;20055;-72
2022/05/29 10:46:54;;;;;;;0.60;0.60;;;12.20;99.90;;;;;;5097137;28;20047;-73
2022/05/29 10:49:28;;;;;;;0.65;0.65;;;12.40;99.90;;;;;;5097114;28;20499;-75
2022/05/29 10:52:18;;;;;;;0.77;0.77;;;12.60;99.90;;;;;;5097060;28;20052;-73
2022/05/29 10:55:13;;;;;;;0.40;0.40;;;12.80;99.90;;;;;;5097047;28;20050;-70
2022/05/29 10:57:44;;;;;;;0.40;0.40;;;12.90;99.90;;;;;;5097257;28;20044;-74
2022/05/29 11:00:25;;;;;;;0.40;0.40;;;12.90;99.90;;;;;;5096898;28;20552;-72
2022/05/29 11:05:48;;;;;;;0.40;0.40;;;12.70;99.90;;;;;;5096789;28;20476;-71
2022/05/29 11:08:41;;;;;;;0.40;0.40;;;12.60;99.90;;;;;;5096758;28;20044;-71
2022/05/29 11:11:27;;;;;;;0.40;0.40;;;12.70;99.90;;;;;;5096746;28;20422;-71
2022/05/29 11:14:11;;;;;;;0.40;0.40;;;12.60;99.90;;;;;;5096756;28;20484;-74
2022/05/29 11:16:55;;;;;;;0.40;0.40;;;12.60;99.90;;;;;;5096865;28;20060;-72
2022/05/29 11:19:26;;;;;;;0.40;0.40;;;12.50;99.90;;;;;;5096447;28;20038;-76
2022/05/29 11:22:22;;;;;;;0.30;0.30;;;12.60;99.90;;;;;;5096470;28;20052;-73
2022/05/29 11:25:31;;;;;;;0.40;0.40;;;12.70;99.90;;;;;;5096737;28;20055;-74
2022/05/29 11:28:25;;;;;;;0.40;0.40;;;12.80;99.90;;;;;;5096306;28;20083;-70
2022/05/29 11:31:08;;;;;;;0.30;0.30;;;13.00;99.90;;;;;;5096372;28;20091;-74
2022/05/29 11:33:57;;;;;;;0.40;0.40;;;13.10;99.90;;;;;;5096495;28;20048;-74
2022/05/29 11:36:39;;;;;;;0.30;0.30;;;13.20;99.90;;;;;;5096175;28;20394;-74
2022/05/29 11:39:36;;;;;;;0.40;0.40;;;13.30;99.90;;;;;;5096104;28;20090;-72
2022/05/29 11:42:13;;;;;;;0.30;0.30;;;13.40;99.90;;;;;;5095896;28;20040;-71
2022/05/29 11:44:51;;;;;;;0.40;0.40;;;13.30;99.90;;;;;;5095935;28;20047;-75
2022/05/29 11:53:26;;;;;;;0.40;0.40;;;13.10;99.90;;;;;;5096368;28;20101;-74
2022/05/29 11:55:55;;;;;;;0.40;0.40;;;13.10;99.90;;;;;;5096236;28;20043;-73
2022/05/29 11:58:28;;;;;;;0.40;0.40;;;13.10;99.90;;;;;;5095803;28;20044;-73
2022/05/29 12:01:15;;;;;;;0.40;0.40;;;13.20;99.90;;;;;;5095798;28;20051;-72
2022/05/29 12:03:54;;;;;;;0.30;0.30;;;13.30;99.90;;;;;;5095675;28;20044;-74
2022/05/29 12:06:33;;;;;;;0.30;0.30;;;13.20;99.90;;;;;;5095724;28;20084;-73
2022/05/29 12:09:24;;;;;;;0.40;0.40;;;13.20;99.90;;;;;;5095549;28;20127;-74
2022/05/29 12:12:07;;;;;;;0.32;0.32;;;13.30;99.90;;;;;;5095142;28;20052;-73
2022/05/29 12:14:39;;;;;;;0.30;0.30;;;13.50;99.90;;;;;;5095879;28;20058;-72
2022/05/29 12:17:17;;;;;;;0.30;0.30;;;13.70;99.90;;;;;;5095736;28;20056;-74
2022/05/29 12:19:48;;;;;;;0.30;0.30;;;13.90;99.90;;;;;;5095612;28;20075;-75
2022/05/29 12:22:16;;;;;;;0.60;0.60;;;13.90;99.90;;;;;;5095243;28;20044;-73
2022/05/29 12:24:46;;;;;;;0.40;0.40;;;13.90;99.90;;;;;;5095287;28;20131;-72
2022/05/29 12:27:19;;;;;;;0.30;0.30;;;13.80;99.90;;;;;;5095606;28;20415;-74
2022/05/29 12:30:00;;;;;;;0.30;0.30;;;13.60;99.90;;;;;;5095446;28;20040;-74
2022/05/29 12:32:30;;;;;;;0.35;0.35;;;13.50;99.90;;;;;;5095286;28;20135;-76
2022/05/29 12:35:17;;;;;;;0.30;0.30;;;13.30;99.90;;;;;;5095020;28;20040;-74
2022/05/29 12:38:08;;;;;;;0.80;0.80;;;13.10;99.90;;;;;;5095121;28;20051;-74
2022/05/29 12:40:52;;;;;;;0.30;0.30;;;12.90;99.90;;;;;;5095111;28;20047;-71
2022/05/29 12:44:04;;;;;;;0.30;0.30;;;12.90;99.90;;;;;;5094980;28;20492;-72
2022/05/29 12:47:05;;;;;;;0.40;0.40;;;12.80;99.90;;;;;;5095012;28;20048;-76
2022/05/29 12:49:55;;;;;;;0.40;0.40;;;12.80;99.90;;;;;;5094205;28;20397;-73
2022/05/29 12:52:29;;;;;;;0.40;0.40;;;12.70;99.90;;;;;;5095131;28;20122;-73
2022/05/29 12:55:16;;;;;;;0.32;0.32;;;12.70;99.90;;;;;;5094935;28;20047;-73
2022/05/29 12:57:54;;;;;;;0.43;0.43;;;12.70;99.90;;;;;;5094138;28;20381;-73
2022/05/29 13:00:24;;;;;;;0.40;0.40;;;12.70;99.90;;;;;;5094582;28;20090;-73
2022/05/29 13:03:13;;;;;;;0.40;0.40;;;12.70;99.90;;;;;;5094607;28;20572;-75
2022/05/29 13:05:51;;;;;;;0.40;0.40;;;12.80;99.90;;;;;;5094510;28;20047;-73
2022/05/29 13:08:41;;;;;;;0.40;0.40;;;12.90;99.90;;;;;;5094420;28;20048;-73
2022/05/29 13:11:08;;;;;;;0.40;0.40;;;13.10;99.90;;;;;;5094410;28;20403;-74
2022/05/29 13:13:37;;;;;;;;;;;13.30;99.90;;;;;;5094852;28;20048;-71
2022/05/29 13:16:23;;;;;;;0.40;0.40;;;13.40;99.90;;;;;;5094238;28;20437;-73
2022/05/29 13:19:18;;;;;;;0.40;0.40;;;13.50;99.90;;;;;;5094254;28;20255;-75
2022/05/29 13:22:08;;;;;;;0.40;0.40;;;13.70;99.90;;;;;;5094351;28;20047;-72
2022/05/29 13:24:38;;;;;;;0.30;0.30;;;13.80;99.90;;;;;;5094235;28;20445;-74
2022/05/29 13:27:12;;;;;;;0.30;0.30;;;13.90;99.90;;;;;;5094110;28;20079;-75
2022/05/29 13:29:43;;;;;;;0.30;0.30;;;13.90;99.90;;;;;;5094002;28;20075;-75
2022/05/29 13:32:24;;;;;;;0.40;0.40;;;13.70;99.90;;;;;;5094059;28;20055;-75
2022/05/29 13:35:15;;;;;;;0.40;0.40;;;13.40;99.90;;;;;;5093976;28;20587;-75
2022/05/29 13:37:49;;;;;;;0.35;0.35;;;13.20;99.90;;;;;;5093912;28;20055;-74
2022/05/29 13:40:21;;;;;;;0.52;0.52;;;13.10;99.90;;;;;;5094024;28;20126;-76
2022/05/29 13:42:49;;;;;;;0.40;0.40;;;13.00;99.90;;;;;;5093903;28;20101;-72
2022/05/29 13:45:24;;;;;;;0.40;0.40;;;13.00;99.90;;;;;;5093959;28;20120;-71
2022/05/29 13:48:11;;;;;;;0.30;0.30;;;12.90;99.90;;;;;;5093817;28;20050;-73
2022/05/29 13:51:12;;;;;;;0.40;0.40;;;12.90;99.90;;;;;;5094136;28;20139;-74
2022/05/29 13:54:00;;;;;;;0.40;0.40;;;12.70;99.90;;;;;;5074159;28;20051;-72
2022/05/29 13:57:08;;;;;;;0.40;0.40;;;12.60;99.90;;;;;;5093799;28;20048;-73